Pagrindinis puslapis
METAR-TAF:

METAR-TAF

Oro uostai :

Bandar Kangan, Iranas

platuma: 27-49-14N, ilguma: 52-21-08E, Aukštis: 662 m

Dabartinis oras

Ataskaita buvo paskelbta 9 valandos ir 34 minutes, ne 15:00 UTC
Vėjas 6 kt iš Pietvakarių
Temperatūra 30°C
Drėgmė 46%
Slėgis 1008 hPa
Matomumas 10 km arba daugiau
nėra debesų žemiau 1500 m ir nėra kamuolinių lietaus debesų

METAR: OIBJ 231500Z 22006KT CAVOK 30/17 Q1008

Laikas: 04:04 (00:34 UTC)


TAF: trūkstamas

Orai ataskaitas ir orų prognozės (METAR, TAF).

turimą stotys yra geltonos ir raudonos taškus žemėlapyje.

Perkelti pele per norėdami pamatyti stoties vardą.

Tada spustelėkite, norėdami matyti oro stebėjimo ir prognozės.

Norėdami pakeisti žemėlapį: spustelėkite ant žalios mygtukų su juodo kryžiaus žemyn,; žalią mygtuką su brūkšneliu, jei norite nutolinti; arba žalių rodyklių gretimoms žemėlapius.


METAR-TAF: